createdAt,value
2018-01-28T00:01:11.527Z,27.80
2018-01-28T00:03:39.018Z,24.90
2018-01-28T00:06:06.525Z,25.47
2018-01-28T00:08:34.042Z,24.13
2018-01-28T00:11:01.547Z,24.30
2018-01-28T00:13:29.039Z,25.67
2018-01-28T00:15:56.556Z,27.67
2018-01-28T00:18:24.047Z,26.57
2018-01-28T00:20:52.316Z,24.23
2018-01-28T00:23:20.581Z,29.33
2018-01-28T00:25:48.079Z,26.10
2018-01-28T00:28:16.522Z,27.27
2018-01-28T00:30:44.006Z,25.07
2018-01-28T00:33:11.510Z,34.47
2018-01-28T00:35:39.010Z,39.77
2018-01-28T00:38:07.286Z,33.03
2018-01-28T00:40:35.542Z,31.93
2018-01-28T00:45:26.563Z,26.33
2018-01-28T00:47:54.059Z,26.70
2018-01-28T00:50:21.542Z,25.53
2018-01-28T00:52:49.055Z,24.37
2018-01-28T00:55:17.314Z,21.30
2018-01-28T00:57:44.810Z,21.70
2018-01-28T01:00:14.239Z,18.53
2018-01-28T01:02:41.726Z,18.17
2018-01-28T01:05:09.231Z,16.40
2018-01-28T01:07:36.757Z,18.60
2018-01-28T01:10:04.239Z,20.00
2018-01-28T01:12:31.743Z,19.53
2018-01-28T01:14:59.343Z,16.40
2018-01-28T01:17:27.595Z,18.90
2018-01-28T01:19:55.087Z,17.67
2018-01-28T01:22:23.346Z,17.37
2018-01-28T01:24:51.654Z,16.70
2018-01-28T01:27:19.158Z,32.50
2018-01-28T01:29:46.682Z,22.43
2018-01-28T01:32:14.201Z,18.70
2018-01-28T01:34:42.468Z,24.23
2018-01-28T01:37:10.741Z,23.13
2018-01-28T01:39:39.005Z,21.27
2018-01-28T01:42:06.503Z,22.20
2018-01-28T01:44:34.007Z,25.73
2018-01-28T01:47:01.603Z,25.03
2018-01-28T01:49:35.666Z,26.87
2018-01-28T01:52:03.172Z,21.60
2018-01-28T01:54:31.426Z,30.97
2018-01-28T01:56:58.925Z,21.90
2018-01-28T01:59:26.418Z,19.00
2018-01-28T02:01:53.906Z,26.50
2018-01-28T02:04:21.396Z,23.83
2018-01-28T02:06:49.002Z,25.77
2018-01-28T02:09:16.487Z,27.83
2018-01-28T02:11:44.746Z,24.17
2018-01-28T02:14:12.365Z,31.13
2018-01-28T02:16:39.865Z,27.77
2018-01-28T02:19:07.361Z,22.80
2018-01-28T02:21:34.862Z,32.23
2018-01-28T02:24:02.351Z,28.00
2018-01-28T02:26:30.619Z,23.80
2018-01-28T02:28:58.135Z,22.53
2018-01-28T02:31:25.641Z,24.83
2018-01-28T02:33:53.140Z,26.40
2018-01-28T02:36:20.647Z,23.93
2018-01-28T02:38:48.150Z,33.60
2018-01-28T02:41:15.647Z,26.73
2018-01-28T02:43:43.173Z,25.33
2018-01-28T02:46:10.673Z,27.70
2018-01-28T02:48:38.167Z,22.27
2018-01-28T02:51:05.778Z,41.93
2018-01-28T02:53:33.284Z,22.57
2018-01-28T02:56:01.580Z,26.07
2018-01-28T02:58:29.183Z,20.83
2018-01-28T03:00:56.682Z,23.60
2018-01-28T03:03:24.186Z,20.40
2018-01-28T03:05:52.463Z,20.20
2018-01-28T03:08:19.970Z,16.83
2018-01-28T03:10:47.456Z,19.90
2018-01-28T03:13:14.953Z,22.30
2018-01-28T03:15:42.443Z,15.87
2018-01-28T03:18:10.698Z,15.57
2018-01-28T03:20:38.232Z,16.50
2018-01-28T03:23:05.743Z,14.33
2018-01-28T03:25:33.235Z,22.80
2018-01-28T03:28:00.731Z,14.70
2018-01-28T03:30:28.981Z,16.80
2018-01-28T03:32:56.483Z,17.37
2018-01-28T03:35:24.742Z,12.97
2018-01-28T03:37:52.239Z,13.13
2018-01-28T03:40:19.750Z,14.93
2018-01-28T03:42:47.239Z,15.43
2018-01-28T03:45:14.740Z,14.20
2018-01-28T03:47:42.254Z,15.57
2018-01-28T03:50:09.810Z,50.17
2018-01-28T03:52:38.066Z,17.00
2018-01-28T03:55:05.571Z,26.83
2018-01-28T03:57:33.062Z,16.73
2018-01-28T04:00:00.551Z,12.70
2018-01-28T04:02:28.835Z,13.37
2018-01-28T04:04:57.091Z,11.83
2018-01-28T04:07:24.594Z,11.57
2018-01-28T04:09:52.093Z,13.70
2018-01-28T04:12:19.586Z,14.70
2018-01-28T04:14:47.848Z,12.07
2018-01-28T04:17:16.131Z,12.17
2018-01-28T04:19:43.650Z,14.07
2018-01-28T04:22:11.150Z,14.27
2018-01-28T04:24:38.667Z,15.53
2018-01-28T04:27:06.930Z,20.40
2018-01-28T04:29:35.960Z,18.43
2018-01-28T04:32:03.456Z,15.30
2018-01-28T04:34:30.962Z,17.13
2018-01-28T04:36:58.454Z,23.00
2018-01-28T04:39:26.067Z,17.27
2018-01-28T04:41:53.565Z,18.03
2018-01-28T04:44:21.831Z,14.63
2018-01-28T04:46:50.095Z,15.90
2018-01-28T04:49:17.582Z,17.57
2018-01-28T04:51:45.083Z,16.53
2018-01-28T04:54:12.583Z,15.13
2018-01-28T04:56:40.863Z,15.67
2018-01-28T04:59:10.763Z,15.87
2018-01-28T05:01:39.035Z,18.20
2018-01-28T05:04:06.534Z,20.03
2018-01-28T05:06:34.031Z,15.83
2018-01-28T05:09:01.527Z,18.20
2018-01-28T05:11:29.780Z,16.00
2018-01-28T05:13:57.271Z,15.87
2018-01-28T05:16:24.771Z,13.13
2018-01-28T05:18:52.272Z,14.43
2018-01-28T05:21:20.550Z,17.40
2018-01-28T05:23:48.051Z,15.07
2018-01-28T05:26:15.539Z,15.33
2018-01-28T05:28:43.092Z,17.40
2018-01-28T05:31:10.578Z,15.60
2018-01-28T05:33:38.871Z,13.13
2018-01-28T05:36:06.370Z,15.20
2018-01-28T05:38:33.866Z,13.40
2018-01-28T05:41:02.147Z,12.73
2018-01-28T05:43:30.410Z,13.80
2018-01-28T05:45:57.910Z,13.47
2018-01-28T05:48:25.401Z,14.87
2018-01-28T05:50:53.688Z,13.07
2018-01-28T05:53:21.204Z,13.93
2018-01-28T05:55:48.699Z,13.63
2018-01-28T05:58:16.212Z,15.50
2018-01-28T06:00:43.698Z,13.40
2018-01-28T06:03:11.219Z,14.27
2018-01-28T06:05:38.704Z,13.97
2018-01-28T06:08:06.210Z,15.37
2018-01-28T06:10:34.474Z,14.87
2018-01-28T06:13:01.994Z,12.93
2018-01-28T06:15:29.487Z,12.93
2018-01-28T06:17:56.978Z,12.40
2018-01-28T06:20:24.494Z,13.90
2018-01-28T06:22:51.987Z,14.23
2018-01-28T06:25:20.347Z,12.90
2018-01-28T06:27:47.859Z,13.20
2018-01-28T06:30:15.363Z,13.27
2018-01-28T06:32:42.866Z,14.63
2018-01-28T06:35:10.387Z,14.97
2018-01-28T06:37:38.675Z,13.27
2018-01-28T06:40:06.938Z,12.70
2018-01-28T06:42:35.212Z,12.03
2018-01-28T06:45:03.494Z,13.43
2018-01-28T06:47:31.022Z,15.33
2018-01-28T06:49:58.519Z,12.80
2018-01-28T06:52:26.779Z,13.40
2018-01-28T06:54:55.043Z,13.37
2018-01-28T06:57:22.551Z,10.00
2018-01-28T06:59:50.074Z,11.50
2018-01-28T07:02:18.363Z,12.23
2018-01-28T07:04:46.703Z,10.83
2018-01-28T07:07:14.194Z,8.30
2018-01-28T07:09:42.457Z,9.77
2018-01-28T07:12:09.963Z,9.07
2018-01-28T07:14:37.658Z,9.00
2018-01-28T07:17:05.151Z,9.10
2018-01-28T07:19:32.658Z,9.17
2018-01-28T07:22:00.155Z,9.97
2018-01-28T07:24:27.676Z,8.97
2018-01-28T07:26:55.167Z,7.93
2018-01-28T07:29:23.439Z,8.77
2018-01-28T07:31:51.302Z,7.50
2018-01-28T07:34:18.795Z,8.03
2018-01-28T07:36:46.458Z,6.80
2018-01-28T07:39:13.941Z,6.73
2018-01-28T07:41:41.432Z,6.70
2018-01-28T07:44:08.931Z,7.37
2018-01-28T07:46:36.420Z,6.40
2018-01-28T07:49:03.910Z,6.63
2018-01-28T07:51:31.395Z,6.67
2018-01-28T07:53:59.636Z,5.10
2018-01-28T07:56:28.107Z,5.53
2018-01-28T07:58:55.594Z,5.60
2018-01-28T08:01:23.870Z,5.33
2018-01-28T08:03:52.115Z,6.10
2018-01-28T08:06:19.615Z,5.17
2018-01-28T08:08:48.319Z,6.80
2018-01-28T08:11:16.577Z,6.93
2018-01-28T08:14:01.547Z,5.53
2018-01-28T08:16:29.027Z,6.53
2018-01-28T08:18:56.543Z,7.77
2018-01-28T08:21:24.026Z,7.90
2018-01-28T08:23:51.514Z,6.97
2018-01-28T08:26:19.016Z,10.83
2018-01-28T08:29:01.982Z,10.40
2018-01-28T08:31:29.488Z,7.23
2018-01-28T08:33:56.976Z,6.00
2018-01-28T08:36:24.473Z,6.20
2018-01-28T08:38:51.958Z,7.47
2018-01-28T08:41:19.483Z,6.70
2018-01-28T08:43:46.978Z,6.67
2018-01-28T08:46:14.481Z,6.40
2018-01-28T08:48:41.987Z,7.63
2018-01-28T08:51:09.482Z,6.90
2018-01-28T08:53:37.004Z,5.97
2018-01-28T08:56:04.487Z,5.57
2018-01-28T08:58:32.767Z,7.57
2018-01-28T09:01:01.024Z,8.63
2018-01-28T09:03:29.286Z,6.30
2018-01-28T09:05:56.791Z,5.23
2018-01-28T09:08:24.282Z,5.63
2018-01-28T09:10:51.781Z,6.50
2018-01-28T09:13:20.039Z,6.60
2018-01-28T09:15:47.531Z,5.07
2018-01-28T09:18:15.046Z,6.13
2018-01-28T09:20:42.538Z,5.83
2018-01-28T09:23:10.817Z,5.43
2018-01-28T09:25:39.074Z,5.57
2018-01-28T09:28:07.440Z,7.37
2018-01-28T09:30:34.918Z,4.73
2018-01-28T09:33:03.179Z,4.67
2018-01-28T09:35:30.684Z,5.00
2018-01-28T09:37:58.174Z,4.87
2018-01-28T09:40:25.681Z,5.20
2018-01-28T09:42:53.201Z,5.20
2018-01-28T09:45:20.683Z,4.37
2018-01-28T09:47:48.947Z,4.10
2018-01-28T09:50:17.211Z,4.33
2018-01-28T09:52:44.719Z,3.17
2018-01-28T09:55:12.203Z,3.50
2018-01-28T09:57:39.700Z,4.47
2018-01-28T10:00:07.946Z,3.20
2018-01-28T10:02:35.439Z,3.63
2018-01-28T10:05:03.724Z,3.37
2018-01-28T10:07:31.971Z,3.00
2018-01-28T10:09:59.481Z,3.03
2018-01-28T10:12:26.961Z,2.50
2018-01-28T10:14:54.455Z,3.70
2018-01-28T10:17:21.950Z,3.97
2018-01-28T10:19:49.549Z,3.23
2018-01-28T10:22:17.803Z,3.03
2018-01-28T10:24:45.295Z,3.43
2018-01-28T10:27:12.791Z,3.87
2018-01-28T10:29:40.317Z,3.63
2018-01-28T10:32:07.812Z,4.23
2018-01-28T10:34:35.303Z,4.20
2018-01-28T10:37:02.803Z,3.33
2018-01-28T10:39:30.315Z,2.63
2018-01-28T10:41:58.721Z,2.63
2018-01-28T10:44:28.140Z,3.00
2018-01-28T10:46:55.622Z,3.20
2018-01-28T10:49:23.883Z,3.37
2018-01-28T10:51:51.362Z,2.87
2018-01-28T10:54:19.613Z,2.50
2018-01-28T10:56:47.112Z,2.90
2018-01-28T10:59:15.481Z,2.90
2018-01-28T11:01:43.743Z,2.50
2018-01-28T11:04:11.255Z,2.63
2018-01-28T11:06:38.752Z,3.13
2018-01-28T11:09:06.237Z,3.10
2018-01-28T11:11:34.483Z,2.73
2018-01-28T11:14:02.000Z,2.97
2018-01-28T11:16:29.522Z,3.23
2018-01-28T11:18:57.803Z,3.33
2018-01-28T11:21:26.078Z,3.63
2018-01-28T11:23:54.320Z,4.07
2018-01-28T11:26:22.791Z,4.80
2018-01-28T11:28:50.279Z,4.90
2018-01-28T11:31:17.778Z,5.17
2018-01-28T11:33:45.276Z,5.30
2018-01-28T11:36:12.771Z,5.30
2018-01-28T11:38:43.891Z,4.33
2018-01-28T11:41:11.956Z,5.13
2018-01-28T11:43:39.458Z,5.77
2018-01-28T11:46:06.963Z,4.23
2018-01-28T11:48:34.499Z,4.40
2018-01-28T11:51:02.016Z,4.93
2018-01-28T11:53:30.304Z,4.83
2018-01-28T11:55:57.794Z,5.00
2018-01-28T11:58:25.303Z,4.97
2018-01-28T12:00:53.580Z,5.20
2018-01-28T12:03:21.878Z,5.83
2018-01-28T12:05:49.372Z,4.53
2018-01-28T12:08:16.866Z,4.50
2018-01-28T12:10:45.114Z,4.63
2018-01-28T12:13:12.595Z,4.50
2018-01-28T12:15:40.106Z,5.63
2018-01-28T12:18:07.650Z,5.80
2018-01-28T12:20:35.145Z,5.40
2018-01-28T12:23:02.652Z,4.97
2018-01-28T12:25:30.146Z,4.67
2018-01-28T12:27:57.692Z,6.73
2018-01-28T12:30:25.171Z,5.50
2018-01-28T12:32:52.656Z,7.67
2018-01-28T12:35:20.157Z,4.50
2018-01-28T12:37:47.666Z,4.63
2018-01-28T12:40:15.179Z,5.47
2018-01-28T12:42:42.658Z,3.83
2018-01-28T12:45:10.146Z,4.13
2018-01-28T12:47:37.630Z,4.03
2018-01-28T12:50:06.937Z,4.43
2018-01-28T12:52:34.675Z,3.93
2018-01-28T12:55:02.935Z,3.30
2018-01-28T12:57:30.526Z,4.33
2018-01-28T12:59:58.025Z,4.47
2018-01-28T13:02:25.519Z,3.30
2018-01-28T13:04:53.015Z,3.63
2018-01-28T13:07:20.500Z,5.13
2018-01-28T13:09:47.991Z,4.83
2018-01-28T13:12:15.499Z,5.17
2018-01-28T13:14:42.986Z,3.63
2018-01-28T13:17:10.520Z,3.80
2018-01-28T13:19:38.008Z,4.70
2018-01-28T13:22:05.511Z,3.80
2018-01-28T13:24:33.004Z,3.00
2018-01-28T13:27:00.492Z,3.87
2018-01-28T13:29:27.972Z,3.33
2018-01-28T13:31:56.230Z,4.50
2018-01-28T13:34:24.502Z,7.10
2018-01-28T13:36:52.751Z,4.03
2018-01-28T13:39:20.248Z,4.27
2018-01-28T13:41:47.734Z,3.63
2018-01-28T13:44:15.231Z,3.67
2018-01-28T13:46:42.727Z,3.93
2018-01-28T13:49:10.220Z,3.20
2018-01-28T13:51:37.823Z,4.30
2018-01-28T13:54:05.317Z,4.60
2018-01-28T13:56:32.862Z,5.47
2018-01-28T13:59:00.323Z,8.80
2018-01-28T14:01:27.803Z,4.77
2018-01-28T14:03:55.299Z,5.77
2018-01-28T14:06:22.784Z,5.47
2018-01-28T14:08:51.052Z,5.53
2018-01-28T14:11:19.319Z,3.63
2018-01-28T14:13:47.589Z,3.53
2018-01-28T14:16:15.075Z,4.00
2018-01-28T14:18:42.651Z,3.63
2018-01-28T14:21:11.055Z,5.63
2018-01-28T14:23:38.563Z,3.77
2018-01-28T14:26:06.823Z,3.37
2018-01-28T14:28:35.082Z,3.20
2018-01-28T14:31:02.576Z,5.33
2018-01-28T14:33:30.066Z,3.60
2018-01-28T14:35:57.555Z,3.20
2018-01-28T14:38:25.048Z,3.73
2018-01-28T14:40:53.295Z,18.07
2018-01-28T14:43:20.878Z,9.03
2018-01-28T14:45:49.170Z,6.37
2018-01-28T14:48:16.658Z,4.03
2018-01-28T14:50:44.152Z,3.97
2018-01-28T14:53:11.645Z,16.03
2018-01-28T14:55:39.186Z,3.93
2018-01-28T14:58:07.438Z,4.03
2018-01-28T15:00:34.928Z,4.00
2018-01-28T15:03:02.535Z,4.27
2018-01-28T15:05:30.048Z,3.83
2018-01-28T15:07:57.523Z,3.57
2018-01-28T15:10:25.047Z,4.03
2018-01-28T15:12:53.299Z,3.87
2018-01-28T15:15:20.793Z,4.10
2018-01-28T15:17:48.308Z,3.87
2018-01-28T15:20:15.811Z,3.57
2018-01-28T15:22:43.296Z,3.90
2018-01-28T15:25:10.899Z,4.07
2018-01-28T15:27:39.144Z,4.10
2018-01-28T15:30:06.628Z,3.80
2018-01-28T15:32:34.118Z,4.07
2018-01-28T15:35:01.607Z,3.80
2018-01-28T15:37:29.132Z,3.80
2018-01-28T15:39:56.635Z,3.40
2018-01-28T15:42:24.183Z,3.07
2018-01-28T15:44:51.677Z,2.97
2018-01-28T15:47:19.163Z,3.80
2018-01-28T15:49:46.670Z,4.00
2018-01-28T15:52:14.167Z,4.20
2018-01-28T15:54:42.412Z,4.47
2018-01-28T15:57:09.895Z,4.93
2018-01-28T15:59:38.254Z,5.10
2018-01-28T16:02:05.730Z,3.83
2018-01-28T16:04:34.006Z,4.33
2018-01-28T16:07:02.316Z,4.27
2018-01-28T16:09:29.815Z,4.57
2018-01-28T16:11:57.334Z,5.60
2018-01-28T16:14:24.841Z,4.73
2018-01-28T16:16:52.319Z,4.43
2018-01-28T16:19:19.847Z,5.10
2018-01-28T16:21:48.334Z,4.93
2018-01-28T16:24:16.628Z,7.03
2018-01-28T16:26:44.138Z,5.50
2018-01-28T16:29:11.635Z,5.60
2018-01-28T16:31:39.907Z,5.77
2018-01-28T16:34:07.497Z,4.80
2018-01-28T16:36:34.975Z,5.97
2018-01-28T16:39:02.483Z,5.70
2018-01-28T16:41:29.987Z,5.60
2018-01-28T16:43:57.486Z,4.87
2018-01-28T16:46:24.989Z,6.80
2018-01-28T16:48:52.501Z,6.67
2018-01-28T16:51:19.990Z,4.83
2018-01-28T16:53:48.243Z,4.20
2018-01-28T16:56:15.735Z,4.60
2018-01-28T16:58:43.227Z,5.23
2018-01-28T17:01:10.714Z,5.43
2018-01-28T17:03:38.217Z,4.77
2018-01-28T17:06:05.711Z,5.93
2018-01-28T17:08:33.210Z,4.10
2018-01-28T17:11:01.451Z,7.90
2018-01-28T17:13:29.042Z,4.53
2018-01-28T17:15:57.295Z,4.83
2018-01-28T17:18:24.801Z,3.80
2018-01-28T17:20:52.301Z,6.80
2018-01-28T17:23:19.783Z,4.20
2018-01-28T17:25:48.056Z,4.90
2018-01-28T17:28:16.337Z,5.93
2018-01-28T17:30:44.595Z,3.73
2018-01-28T17:33:12.083Z,3.40
2018-01-28T17:35:45.207Z,5.73
2018-01-28T17:38:12.701Z,4.20
2018-01-28T17:40:40.963Z,3.60
2018-01-28T17:43:08.479Z,7.00
2018-01-28T17:45:35.974Z,3.67
2018-01-28T17:48:03.456Z,4.47
2018-01-28T17:50:33.638Z,5.90
2018-01-28T17:53:01.127Z,4.97
2018-01-28T17:55:28.619Z,3.77
2018-01-28T17:57:56.115Z,3.67
2018-01-28T18:00:23.593Z,3.07
2018-01-28T18:02:51.103Z,4.40
2018-01-28T18:05:18.622Z,4.20
2018-01-28T18:07:46.107Z,3.40
2018-01-28T18:10:13.620Z,3.60
2018-01-28T18:12:41.116Z,3.43
2018-01-28T18:15:09.374Z,2.80
2018-01-28T18:17:37.644Z,3.57
2018-01-28T18:20:05.147Z,2.77
2018-01-28T18:22:32.734Z,3.30
2018-01-28T18:25:00.211Z,3.47
2018-01-28T18:27:27.810Z,3.30
2018-01-28T18:29:55.312Z,3.07
2018-01-28T18:32:22.805Z,4.67
2018-01-28T18:34:50.325Z,3.37
2018-01-28T18:37:17.805Z,3.10
2018-01-28T18:39:45.311Z,3.87
2018-01-28T18:42:12.803Z,3.80
2018-01-28T18:44:41.142Z,3.23
2018-01-28T18:47:08.667Z,3.13
2018-01-28T18:49:36.272Z,3.90
2018-01-28T18:52:03.774Z,3.37
2018-01-28T18:54:32.057Z,2.90
2018-01-28T18:56:59.563Z,5.07
2018-01-28T18:59:27.095Z,7.00
2018-01-28T19:01:54.766Z,3.97
2018-01-28T19:04:22.267Z,4.33
2018-01-28T19:06:50.536Z,4.37
2018-01-28T19:09:18.050Z,3.63
2018-01-28T19:11:45.566Z,3.07
2018-01-28T19:14:14.250Z,4.00
2018-01-28T19:16:42.528Z,4.80
2018-01-28T19:19:10.779Z,3.07
2018-01-28T19:21:38.291Z,3.40
2018-01-28T19:24:05.780Z,2.83
2018-01-28T19:26:33.291Z,6.83
2018-01-28T19:29:01.700Z,3.40
2018-01-28T19:31:29.194Z,2.93
2018-01-28T19:33:56.738Z,5.20
2018-01-28T19:36:24.331Z,4.73
2018-01-28T19:38:52.598Z,5.97
2018-01-28T19:41:20.125Z,5.17
2018-01-28T19:43:48.413Z,4.43
2018-01-28T19:46:16.003Z,5.20
2018-01-28T19:48:44.270Z,5.07
2018-01-28T19:51:12.558Z,4.53
2018-01-28T19:53:40.819Z,4.33
2018-01-28T19:56:08.324Z,4.67
2018-01-28T19:58:35.844Z,4.30
2018-01-28T20:01:04.124Z,4.50
2018-01-28T20:03:32.450Z,4.90
2018-01-28T20:05:59.992Z,4.93
2018-01-28T20:08:27.515Z,4.97
2018-01-28T20:10:55.806Z,5.43
2018-01-28T20:13:23.294Z,4.63
2018-01-28T20:15:50.797Z,4.97
2018-01-28T20:18:18.288Z,6.00
2018-01-28T20:20:46.582Z,5.57
2018-01-28T20:23:14.087Z,5.37
2018-01-28T20:25:41.586Z,4.87
2018-01-28T20:28:10.127Z,5.20
2018-01-28T20:30:37.622Z,5.10
2018-01-28T20:33:05.118Z,5.40
2018-01-28T20:35:33.378Z,5.77
2018-01-28T20:38:00.854Z,6.13
2018-01-28T20:40:28.341Z,5.73
2018-01-28T20:42:55.844Z,5.10
2018-01-28T20:45:23.342Z,19.93
2018-01-28T20:47:50.914Z,6.03
2018-01-28T20:50:18.395Z,5.30
2018-01-28T20:52:46.647Z,6.07
2018-01-28T20:55:14.150Z,6.10
2018-01-28T20:57:41.642Z,5.67
2018-01-28T21:00:09.152Z,5.87
2018-01-28T21:02:36.648Z,7.67
2018-01-28T21:05:04.136Z,6.10
2018-01-28T21:07:31.662Z,6.50
2018-01-28T21:09:59.164Z,6.87
2018-01-28T21:12:27.463Z,6.50
2018-01-28T21:14:54.967Z,6.97
2018-01-28T21:17:22.475Z,7.10
2018-01-28T21:19:49.984Z,6.30
2018-01-28T21:22:18.251Z,6.27
2018-01-28T21:24:45.838Z,6.27
2018-01-28T21:27:13.328Z,6.67
2018-01-28T21:29:40.810Z,6.57
2018-01-28T21:32:08.327Z,6.13
2018-01-28T21:34:36.596Z,5.47
2018-01-28T21:37:04.845Z,5.73
2018-01-28T21:39:32.360Z,11.33
2018-01-28T21:41:59.855Z,6.60
2018-01-28T21:44:27.359Z,5.67
2018-01-28T21:46:54.855Z,6.70
2018-01-28T21:49:22.355Z,6.00
2018-01-28T21:51:50.677Z,6.83
2018-01-28T21:54:18.179Z,6.67
2018-01-28T21:56:45.690Z,6.03
2018-01-28T21:59:13.190Z,5.93
2018-01-28T22:01:40.688Z,7.07
2018-01-28T22:04:08.190Z,7.37
2018-01-28T22:06:35.699Z,6.60
2018-01-28T22:09:03.231Z,6.67
2018-01-28T22:11:31.518Z,6.60
2018-01-28T22:13:59.781Z,7.47
2018-01-28T22:16:27.271Z,7.03
2018-01-28T22:18:54.778Z,7.20
2018-01-28T22:21:22.371Z,8.00
2018-01-28T22:23:49.938Z,7.33
2018-01-28T22:26:17.493Z,7.10
2018-01-28T22:28:45.815Z,7.27
2018-01-28T22:31:13.373Z,7.27
2018-01-28T22:33:40.951Z,8.70
2018-01-28T22:36:08.487Z,8.93
2018-01-28T22:38:36.046Z,8.03
2018-01-28T22:41:03.598Z,7.50
2018-01-28T22:43:31.152Z,8.17
2018-01-28T22:45:58.744Z,8.30
2018-01-28T22:48:26.297Z,20.20
2018-01-28T22:50:53.841Z,8.87
2018-01-28T22:53:21.389Z,8.93
2018-01-28T22:55:48.958Z,7.43
2018-01-28T22:58:16.486Z,8.23
2018-01-28T23:00:44.812Z,10.20
2018-01-28T23:03:12.314Z,7.70
2018-01-28T23:05:40.655Z,7.87
2018-01-28T23:08:08.166Z,6.83
2018-01-28T23:10:35.775Z,6.00
2018-01-28T23:13:03.254Z,6.90
2018-01-28T23:15:30.747Z,7.83
2018-01-28T23:17:58.649Z,6.30
2018-01-28T23:20:26.154Z,6.03
2018-01-28T23:22:53.668Z,5.07
2018-01-28T23:25:21.176Z,4.73
2018-01-28T23:27:48.676Z,5.00
2018-01-28T23:30:16.186Z,4.50
2018-01-28T23:32:43.675Z,5.10
2018-01-28T23:35:11.943Z,3.63
2018-01-28T23:37:39.449Z,4.40
2018-01-28T23:40:06.958Z,4.50
2018-01-28T23:42:35.231Z,3.03
2018-01-28T23:45:04.018Z,5.67
2018-01-28T23:47:32.290Z,3.57
2018-01-28T23:49:59.775Z,3.00
2018-01-28T23:52:27.296Z,2.67
2018-01-28T23:54:54.799Z,5.37
2018-01-28T23:57:22.383Z,2.90
2018-01-28T23:59:49.923Z,2.57
